Time;durP1;ratioP1;P1;durP2;ratioP2;P2;SDS_P1;SDS_P2;PMS_P1;PMS_P2;Temp;Humidity;BMP_temperature;BMP_pressure;BME280_temperature;BME280_humidity;BME280_pressure;Samples;Min_cycle;Max_cycle;Signal;HPM_P1;HPM_P2
2022/02/05 00:01:50;;;;;;;8.68;3.60;;;5.70;99.90;;;;;;5075353;28;20174;-78
2022/02/05 00:04:17;;;;;;;6.93;1.80;;;5.60;99.90;;;;;;5058251;28;20182;-78
2022/02/05 00:06:46;;;;;;;7.05;2.08;;;5.70;99.90;;;;;;5058200;28;20178;-82
2022/02/05 00:38:51;;;;;;;3.95;2.28;;;5.40;99.90;;;;;;5073953;28;20542;-80
2022/02/05 00:41:17;;;;;;;14.10;2.50;;;5.40;99.90;;;;;;5073833;28;20273;-79
2022/02/05 00:43:51;;;;;;;7.63;2.33;;;5.40;99.90;;;;;;5074129;28;20201;-81
2022/02/05 00:46:18;;;;;;;6.63;2.83;;;5.50;99.90;;;;;;5074315;28;20170;-77
2022/02/05 00:48:44;;;;;;;3.63;1.90;;;5.50;99.90;;;;;;5074113;28;20264;-81
2022/02/05 00:51:17;;;;;;;7.85;2.38;;;5.40;99.90;;;;;;5073952;28;20232;-83
2022/02/05 00:53:46;;;;;;;4.63;2.58;;;5.50;99.90;;;;;;5074133;28;20201;-79
2022/02/05 00:56:21;;;;;;;4.57;2.25;;;5.30;99.90;;;;;;5055921;28;20252;-80
2022/02/05 00:58:47;;;;;;;4.97;1.77;;;5.20;99.90;;;;;;5073793;28;20159;-78
2022/02/05 01:01:12;;;;;;;4.30;2.08;;;5.30;99.90;;;;;;5073872;28;20170;-78
2022/02/05 01:03:39;;;;;;;13.02;2.72;;;5.40;99.90;;;;;;5073554;28;20268;-80
2022/02/05 01:06:06;;;;;;;3.35;1.95;;;5.50;99.90;;;;;;5073508;28;20175;-80
2022/02/05 01:08:33;;;;;;;7.30;1.67;;;5.50;99.90;;;;;;5073458;28;20618;-79
2022/02/05 01:10:59;;;;;;;7.85;2.35;;;5.40;99.90;;;;;;5055429;28;20585;-78
2022/02/05 01:13:28;;;;;;;5.63;2.00;;;5.40;99.90;;;;;;5036404;28;1079177;-83
2022/02/05 01:18:21;;;;;;;10.07;2.17;;;5.30;99.90;;;;;;5075106;28;20170;-83
2022/02/05 01:23:25;;;;;;;4.00;2.33;;;5.00;99.90;;;;;;5074570;28;20191;-80
2022/02/05 01:25:59;;;;;;;7.75;1.77;;;5.20;99.90;;;;;;5074476;28;20198;-79
2022/02/05 01:28:30;;;;;;;3.97;2.03;;;5.00;99.90;;;;;;5074582;28;20165;-78
2022/02/05 01:30:57;;;;;;;5.78;1.83;;;5.00;99.90;;;;;;5074241;28;20502;-79
2022/02/05 01:52:13;;;;;;;9.82;1.75;;;5.00;99.90;;;;;;5073000;28;20296;-78
2022/02/05 01:57:41;;;;;;;8.63;2.38;;;5.10;99.90;;;;;;5073849;28;20599;-83
2022/02/05 02:06:08;;;;;;;3.50;1.85;;;5.30;99.90;;;;;;5073949;28;20641;-83
2022/02/05 02:14:09;;;;;;;5.18;1.55;;;5.10;99.90;;;;;;5073516;28;20615;-78
2022/02/05 02:16:56;;;;;;;6.00;1.70;;;5.10;99.90;;;;;;5073375;28;20182;-83
2022/02/05 02:22:00;;;;;;;7.63;1.75;;;5.10;99.90;;;;;;5073139;28;20171;-77
2022/02/05 02:24:39;;;;;;;8.90;1.58;;;5.10;99.90;;;;;;5055556;28;20257;-77
2022/02/05 02:30:06;;;;;;;8.85;2.47;;;5.00;99.90;;;;;;5073171;28;20642;-82
2022/02/05 02:32:34;;;;;;;5.05;1.65;;;5.00;99.90;;;;;;5073040;28;20206;-79
2022/02/05 02:35:06;;;;;;;5.43;2.10;;;5.10;99.90;;;;;;5073348;28;20230;-80
2022/02/05 02:37:38;;;;;;;4.55;2.20;;;5.20;99.90;;;;;;5073200;28;20182;-82
2022/02/05 02:42:46;;;;;;;4.07;1.80;;;5.10;99.90;;;;;;5073271;28;20190;-81
2022/02/05 02:45:11;;;;;;;4.03;1.98;;;5.10;99.90;;;;;;5072990;28;20166;-81
2022/02/05 02:47:43;;;;;;;5.72;1.65;;;5.00;99.90;;;;;;5073028;28;20245;-81
2022/02/05 02:50:28;;;;;;;5.53;2.20;;;5.00;99.90;;;;;;5073033;28;20163;-82
2022/02/05 02:58:28;;;;;;;5.45;1.70;;;4.90;99.90;;;;;;5072825;28;20236;-79
2022/02/05 03:00:57;;;;;;;8.77;1.80;;;4.90;99.90;;;;;;5073228;28;20166;-79
2022/02/05 03:03:22;;;;;;;8.55;2.30;;;4.80;99.90;;;;;;5072924;28;20183;-83
2022/02/05 03:05:48;;;;;;;7.18;1.60;;;4.90;99.90;;;;;;5073169;28;20176;-81
2022/02/05 03:08:13;;;;;;;9.38;1.80;;;5.00;99.90;;;;;;5072852;28;20158;-79
2022/02/05 03:10:39;;;;;;;3.40;1.33;;;5.10;99.90;;;;;;5072739;28;20170;-76
2022/02/05 03:13:05;;;;;;;6.55;1.77;;;5.10;99.90;;;;;;5054463;28;20241;-78
2022/02/05 03:15:39;;;;;;;3.67;1.75;;;5.30;99.90;;;;;;5072870;28;20166;-83
2022/02/05 03:18:09;;;;;;;2.47;1.73;;;5.40;99.90;;;;;;5072462;28;20163;-79
2022/02/05 03:20:36;;;;;;;2.33;1.25;;;5.30;99.90;;;;;;5072845;28;20170;-81
2022/02/05 03:23:02;;;;;;;4.60;1.40;;;5.30;99.90;;;;;;5072656;28;20187;-80
2022/02/05 03:25:33;;;;;;;8.02;2.05;;;5.20;99.90;;;;;;5072996;28;20173;-82
2022/02/05 03:28:00;;;;;;;5.30;2.42;;;5.20;99.90;;;;;;5072614;28;20162;-82
2022/02/05 03:30:26;;;;;;;6.78;2.15;;;5.20;99.90;;;;;;5072340;28;20167;-82
2022/02/05 03:32:51;;;;;;;4.32;1.88;;;5.20;99.90;;;;;;5072610;28;20205;-76
2022/02/05 03:35:17;;;;;;;6.60;1.85;;;5.20;99.90;;;;;;5054580;28;20689;-79
2022/02/05 03:37:43;;;;;;;5.72;1.85;;;5.20;99.90;;;;;;5072600;28;20178;-80
2022/02/05 03:40:10;;;;;;;7.03;1.70;;;5.10;99.90;;;;;;5072764;28;20542;-81
2022/02/05 03:42:36;;;;;;;8.35;1.67;;;5.00;99.90;;;;;;5072368;28;20233;-79
2022/02/05 03:45:03;;;;;;;3.67;1.63;;;5.10;99.90;;;;;;5072587;28;20540;-83
2022/02/05 03:47:32;;;;;;;1.60;1.35;;;5.10;99.90;;;;;;5072737;28;20230;-82
2022/02/05 03:49:58;;;;;;;7.68;2.10;;;5.00;99.90;;;;;;5072432;28;20174;-80
2022/02/05 03:52:24;;;;;;;7.70;1.88;;;4.90;99.90;;;;;;5072422;28;20297;-77
2022/02/05 03:54:49;;;;;;;3.80;1.40;;;4.80;99.90;;;;;;5072426;28;20198;-78
2022/02/05 03:57:15;;;;;;;3.45;1.40;;;4.80;99.90;;;;;;5072955;28;20181;-79
2022/02/05 03:59:41;;;;;;;5.63;1.92;;;4.80;99.90;;;;;;5072559;28;20162;-79
2022/02/05 04:02:07;;;;;;;9.57;1.63;;;4.90;99.90;;;;;;5072479;28;20209;-82
2022/02/05 04:04:33;;;;;;;14.52;1.90;;;4.90;99.90;;;;;;5072457;28;20163;-81
2022/02/05 04:06:59;;;;;;;10.23;1.92;;;5.10;99.90;;;;;;5072501;28;20162;-78
2022/02/05 04:09:30;;;;;;;5.13;2.47;;;5.20;99.90;;;;;;5072470;28;20672;-79
2022/02/05 04:17:09;;;;;;;10.20;2.25;;;5.20;99.90;;;;;;5088787;28;20245;-77
2022/02/05 04:19:35;;;;;;;10.95;2.45;;;5.10;99.90;;;;;;5088748;28;20201;-77
2022/02/05 04:22:01;;;;;;;4.50;1.85;;;5.10;99.90;;;;;;5088545;28;20190;-76
2022/02/05 04:24:26;;;;;;;3.03;1.65;;;5.00;99.90;;;;;;5088612;28;20585;-76
2022/02/05 04:26:52;;;;;;;2.85;1.65;;;4.90;99.90;;;;;;5088493;28;20170;-76
2022/02/05 04:29:17;;;;;;;15.60;1.55;;;4.90;99.90;;;;;;5088306;28;20245;-76
2022/02/05 04:31:43;;;;;;;6.07;2.05;;;4.90;99.90;;;;;;5078279;28;20214;-77
2022/02/05 04:34:10;;;;;;;15.02;1.90;;;5.00;99.90;;;;;;5082045;28;20181;-77
2022/02/05 04:36:37;;;;;;;12.85;1.92;;;5.00;99.90;;;;;;5081355;28;20166;-77
2022/02/05 04:39:11;;;;;;;5.13;2.03;;;4.90;99.90;;;;;;5099628;28;20170;-78
2022/02/05 04:41:51;;;;;;;8.25;2.55;;;5.00;99.90;;;;;;5099659;28;20218;-76
2022/02/05 04:47:35;;;;;;;9.82;1.80;;;5.00;99.90;;;;;;5095369;28;20269;-78
2022/02/05 04:55:38;;;;;;;10.38;1.90;;;5.10;99.90;;;;;;5076647;28;20179;-79
2022/02/05 04:58:26;;;;;;;11.90;1.65;;;5.10;99.90;;;;;;5085553;28;20174;-78
2022/02/05 05:22:01;;;;;;;6.03;2.25;;;4.80;99.90;;;;;;5041270;28;20194;-82
2022/02/05 05:24:27;;;;;;;7.28;2.55;;;4.80;99.90;;;;;;5075561;28;20162;-77
2022/02/05 05:26:53;;;;;;;4.88;1.52;;;4.60;99.90;;;;;;5074285;28;20174;-79
2022/02/05 05:29:20;;;;;;;6.35;1.95;;;4.60;99.90;;;;;;5074902;28;20253;-81
2022/02/05 05:31:46;;;;;;;18.02;2.55;;;4.60;99.90;;;;;;5056462;28;20198;-78
2022/02/05 05:34:11;;;;;;;8.07;1.75;;;4.70;99.90;;;;;;5075068;28;20162;-80
2022/02/05 05:36:37;;;;;;;10.02;1.80;;;4.80;99.90;;;;;;5074973;28;20159;-78
2022/02/05 05:39:04;;;;;;;7.72;2.13;;;4.80;99.90;;;;;;5075059;28;20651;-82
2022/02/05 05:41:31;;;;;;;5.15;2.15;;;4.60;99.90;;;;;;5074614;28;20162;-81
2022/02/05 05:46:42;;;;;;;10.10;1.90;;;4.70;99.90;;;;;;5074926;28;20171;-80
2022/02/05 05:51:36;;;;;;;8.52;2.55;;;4.80;99.90;;;;;;5074172;28;20246;-82
2022/02/05 05:54:01;;;;;;;7.85;2.13;;;4.70;99.90;;;;;;5073950;28;20166;-79
2022/02/05 05:56:27;;;;;;;7.05;1.85;;;4.60;99.90;;;;;;5073797;28;20566;-78
2022/02/05 05:58:53;;;;;;;16.98;2.72;;;4.50;99.90;;;;;;5073952;28;20170;-80
2022/02/05 06:01:18;;;;;;;8.00;2.40;;;4.50;99.90;;;;;;5074024;28;20209;-75
2022/02/05 06:03:44;;;;;;;3.60;1.63;;;4.60;99.90;;;;;;5074086;28;20781;-82
2022/02/05 06:06:09;;;;;;;4.85;2.67;;;4.60;99.90;;;;;;5073881;28;20175;-80
2022/02/05 06:08:35;;;;;;;5.18;2.13;;;4.70;99.90;;;;;;5073448;28;20249;-77
2022/02/05 06:11:01;;;;;;;6.07;2.38;;;4.70;99.90;;;;;;5073882;28;20186;-78
2022/02/05 06:13:27;;;;;;;4.85;1.63;;;4.60;99.90;;;;;;5074245;28;20611;-79
2022/02/05 06:15:55;;;;;;;6.45;2.90;;;4.60;99.90;;;;;;5055456;28;20665;-78
2022/02/05 06:18:21;;;;;;;7.95;2.28;;;4.60;99.90;;;;;;5055583;28;20170;-80
2022/02/05 06:20:46;;;;;;;12.20;2.60;;;4.60;99.90;;;;;;5073593;28;20688;-77
2022/02/05 06:23:12;;;;;;;2.28;1.83;;;4.80;99.90;;;;;;5055836;28;20190;-79
2022/02/05 06:25:41;;;;;;;5.97;2.60;;;4.60;99.90;;;;;;5073440;28;20613;-81
2022/02/05 06:28:09;;;;;;;14.07;3.03;;;4.70;99.90;;;;;;5073967;28;20165;-79
2022/02/05 06:30:34;;;;;;;15.32;2.47;;;4.60;99.90;;;;;;5055675;28;20569;-80
2022/02/05 06:33:00;;;;;;;6.97;1.50;;;4.60;99.90;;;;;;5073306;28;20212;-79
2022/02/05 06:35:26;;;;;;;4.43;1.80;;;4.70;99.90;;;;;;5073145;28;20223;-82
2022/02/05 06:37:51;;;;;;;21.13;2.25;;;4.80;99.90;;;;;;5073158;28;20171;-79
2022/02/05 06:40:17;;;;;;;14.48;1.83;;;4.80;99.90;;;;;;5073386;28;20171;-83
2022/02/05 06:42:47;;;;;;;9.68;2.35;;;4.80;99.90;;;;;;5073352;28;20186;-81
2022/02/05 06:45:16;;;;;;;7.28;1.92;;;4.80;99.90;;;;;;5073495;28;20231;-78
2022/02/05 06:47:42;;;;;;;10.82;2.05;;;4.70;99.90;;;;;;5055807;28;20622;-82
2022/02/05 06:50:08;;;;;;;5.07;1.55;;;4.70;99.90;;;;;;5073450;28;20658;-82
2022/02/05 06:52:34;;;;;;;11.13;2.78;;;4.70;99.90;;;;;;5054836;28;20215;-79
2022/02/05 06:55:01;;;;;;;7.20;2.33;;;4.60;99.90;;;;;;5039024;28;20170;-81
2022/02/05 06:57:26;;;;;;;17.13;2.10;;;4.70;99.90;;;;;;5073211;28;20166;-79
2022/02/05 06:59:52;;;;;;;11.32;2.20;;;4.50;99.90;;;;;;5054903;28;20920;-79
2022/02/05 07:02:17;;;;;;;9.23;2.80;;;4.60;99.90;;;;;;5072557;28;20278;-78
2022/02/05 07:04:45;;;;;;;16.13;1.90;;;4.50;99.90;;;;;;5072996;28;20545;-83
2022/02/05 07:07:10;;;;;;;8.68;2.42;;;4.60;99.90;;;;;;5072809;28;20189;-81
2022/02/05 07:09:37;;;;;;;9.63;1.98;;;4.60;99.90;;;;;;5072988;28;20622;-82
2022/02/05 07:12:04;;;;;;;5.93;2.33;;;4.80;99.90;;;;;;5072965;28;20210;-84
2022/02/05 07:14:38;;;;;;;8.85;1.88;;;4.70;99.90;;;;;;5055339;28;20192;-83
2022/02/05 07:17:15;;;;;;;16.40;2.70;;;4.70;99.90;;;;;;5073416;28;20170;-84
2022/02/05 07:20:02;;;;;;;8.23;2.63;;;4.60;99.90;;;;;;5073472;28;20170;-84
2022/02/05 07:22:33;;;;;;;12.32;2.42;;;4.70;99.90;;;;;;5073279;28;20178;-84
2022/02/05 07:30:12;;;;;;;19.95;2.13;;;4.70;99.90;;;;;;5073379;28;20285;-81
2022/02/05 07:32:38;;;;;;;4.13;2.63;;;4.70;99.90;;;;;;5054975;28;20593;-83
2022/02/05 07:35:04;;;;;;;6.05;1.88;;;4.80;99.90;;;;;;5073191;28;20171;-85
2022/02/05 07:37:29;;;;;;;7.47;2.92;;;4.80;99.90;;;;;;5073130;28;20171;-84
2022/02/05 07:39:55;;;;;;;6.80;2.03;;;4.80;99.90;;;;;;5073142;28;20232;-84
2022/02/05 07:42:20;;;;;;;18.38;3.17;;;4.80;99.90;;;;;;5072950;28;20190;-84
2022/02/05 07:44:48;;;;;;;17.42;2.67;;;4.80;99.90;;;;;;5073076;28;20565;-82
2022/02/05 07:47:16;;;;;;;5.85;2.45;;;4.90;99.90;;;;;;5073183;28;20169;-84
2022/02/05 07:49:43;;;;;;;16.67;2.40;;;5.00;99.90;;;;;;5072921;28;20167;-84
2022/02/05 07:52:10;;;;;;;10.88;2.45;;;4.90;99.90;;;;;;5075982;28;20210;-84
2022/02/05 07:54:36;;;;;;;19.05;3.78;;;4.90;99.90;;;;;;5076719;28;20167;-83
2022/02/05 07:57:02;;;;;;;23.33;4.53;;;5.10;99.90;;;;;;5076951;28;20224;-85
2022/02/05 07:59:27;;;;;;;8.80;3.08;;;5.10;99.90;;;;;;5076651;28;20224;-84
2022/02/05 08:01:53;;;;;;;6.18;2.20;;;5.10;99.90;;;;;;5076967;28;20171;-86
2022/02/05 08:04:19;;;;;;;12.50;2.72;;;5.10;99.90;;;;;;5077025;28;20171;-84
2022/02/05 08:06:46;;;;;;;7.07;2.47;;;5.00;99.90;;;;;;5076336;28;20166;-82
2022/02/05 08:11:49;;;;;;;6.50;2.20;;;5.00;99.90;;;;;;5076575;28;20761;-79
2022/02/05 08:14:16;;;;;;;8.45;2.65;;;5.10;99.90;;;;;;5076279;28;20341;-80
2022/02/05 08:19:08;;;;;;;5.95;2.00;;;5.10;99.90;;;;;;5076648;28;20182;-85
2022/02/05 08:21:34;;;;;;;5.57;2.40;;;5.00;99.90;;;;;;5076741;28;20175;-85
2022/02/05 08:24:00;;;;;;;10.80;2.60;;;4.90;99.90;;;;;;5076620;28;20237;-83
2022/02/05 08:26:30;;;;;;;10.85;2.47;;;5.00;99.90;;;;;;5076544;28;20210;-82
2022/02/05 08:28:56;;;;;;;12.32;2.67;;;4.90;99.90;;;;;;5076684;28;20569;-85
2022/02/05 08:31:22;;;;;;;4.20;1.92;;;5.00;99.90;;;;;;5076662;28;20226;-83
2022/02/05 08:33:48;;;;;;;16.55;2.63;;;5.10;99.90;;;;;;5076784;28;20563;-82
2022/02/05 08:36:14;;;;;;;3.47;1.75;;;5.10;99.90;;;;;;5076605;28;20162;-85
2022/02/05 08:38:40;;;;;;;7.22;2.55;;;5.30;99.90;;;;;;5076512;28;20551;-83
2022/02/05 08:41:05;;;;;;;14.88;2.17;;;5.40;99.90;;;;;;5076621;28;20189;-83
2022/02/05 08:43:31;;;;;;;12.68;2.03;;;5.40;99.90;;;;;;5076279;28;20285;-85
2022/02/05 08:45:58;;;;;;;9.52;2.65;;;5.50;99.90;;;;;;5076823;28;20657;-85
2022/02/05 08:48:24;;;;;;;9.25;3.17;;;5.50;99.90;;;;;;5076723;28;20604;-84
2022/02/05 08:50:49;;;;;;;19.98;2.75;;;5.60;99.90;;;;;;5076346;28;20162;-84
2022/02/05 08:53:22;;;;;;;9.23;2.13;;;5.60;99.90;;;;;;5057491;28;20690;-81
2022/02/05 08:55:49;;;;;;;6.68;1.85;;;5.50;99.90;;;;;;5075898;28;20190;-79
2022/02/05 08:58:15;;;;;;;6.53;2.35;;;5.60;99.90;;;;;;5057643;28;20698;-79
2022/02/05 09:00:48;;;;;;;9.02;2.60;;;5.60;99.90;;;;;;5075870;28;20167;-82
2022/02/05 09:06:04;;;;;;;7.90;2.13;;;5.60;99.90;;;;;;5074844;28;20185;-78
2022/02/05 09:08:36;;;;;;;14.35;2.13;;;5.60;99.90;;;;;;5069066;28;20205;-78
2022/02/05 09:11:17;;;;;;;6.90;2.28;;;5.70;99.90;;;;;;5074517;28;20169;-81
2022/02/05 09:16:12;;;;;;;9.60;1.83;;;5.80;99.90;;;;;;5074617;28;20519;-81
2022/02/05 09:18:39;;;;;;;12.57;1.70;;;6.10;99.90;;;;;;5056549;28;20166;-80
2022/02/05 09:21:05;;;;;;;11.32;2.28;;;6.20;99.90;;;;;;5074319;28;20558;-79
2022/02/05 09:23:31;;;;;;;9.18;2.33;;;6.20;99.90;;;;;;5074240;28;20194;-80
2022/02/05 09:25:59;;;;;;;7.45;1.95;;;6.20;99.90;;;;;;5074175;28;20170;-78
2022/02/05 09:28:28;;;;;;;8.50;1.52;;;5.90;99.90;;;;;;5073891;28;20170;-80
2022/02/05 09:33:31;;;;;;;4.20;2.25;;;5.90;99.90;;;;;;5074405;28;20650;-78
2022/02/05 09:35:57;;;;;;;8.55;2.05;;;6.00;99.90;;;;;;5074153;28;20619;-81
2022/02/05 09:38:23;;;;;;;10.38;2.42;;;6.10;99.90;;;;;;5074367;28;20245;-79
2022/02/05 09:40:48;;;;;;;11.68;2.22;;;6.20;99.90;;;;;;5074519;28;20166;-82
2022/02/05 09:43:14;;;;;;;5.05;1.40;;;6.10;99.90;;;;;;5057197;28;20221;-83
2022/02/05 09:45:40;;;;;;;14.57;2.20;;;6.10;99.90;;;;;;5057825;28;20170;-82
2022/02/05 09:48:07;;;;;;;16.05;2.00;;;6.00;99.90;;;;;;5075034;28;20175;-84
2022/02/05 09:50:33;;;;;;;6.93;1.92;;;6.10;99.90;;;;;;5075518;28;20201;-85
2022/02/05 09:53:12;;;;;;;8.68;2.22;;;6.00;99.90;;;;;;5075293;28;20225;-84
2022/02/05 09:55:39;;;;;;;4.78;1.75;;;6.10;99.90;;;;;;5075263;28;20158;-85
2022/02/05 09:58:04;;;;;;;6.10;2.25;;;6.10;99.90;;;;;;5075602;28;20198;-85
2022/02/05 10:00:30;;;;;;;3.58;1.77;;;6.10;99.90;;;;;;5076324;28;20171;-80
2022/02/05 10:02:57;;;;;;;6.97;2.08;;;6.30;99.90;;;;;;5074579;28;20178;-84
2022/02/05 10:05:30;;;;;;;11.13;1.92;;;6.30;99.90;;;;;;5074297;28;20676;-81
2022/02/05 10:08:01;;;;;;;4.20;1.75;;;6.30;99.90;;;;;;5074229;28;20672;-77
2022/02/05 10:10:37;;;;;;;9.77;2.20;;;6.50;99.90;;;;;;5073931;28;20639;-82
2022/02/05 10:13:19;;;;;;;6.18;2.35;;;6.50;99.90;;;;;;5073030;28;20271;-80
2022/02/05 10:15:50;;;;;;;3.60;1.95;;;6.50;99.90;;;;;;5074690;28;20228;-79
2022/02/05 10:18:55;;;;;;;4.28;1.60;;;6.60;99.90;;;;;;5073937;28;20733;-80
2022/02/05 10:21:26;;;;;;;10.07;2.05;;;6.70;99.90;;;;;;4972150;28;20178;-82
2022/02/05 10:24:05;;;;;;;13.27;2.45;;;6.80;99.90;;;;;;5058952;28;20198;-82
2022/02/05 10:26:43;;;;;;;7.22;1.90;;;6.80;99.90;;;;;;5074268;28;20250;-85
2022/02/05 10:29:14;;;;;;;6.53;1.83;;;6.80;99.90;;;;;;5074071;28;20170;-79
2022/02/05 10:32:13;;;;;;;8.00;2.58;;;6.90;99.90;;;;;;5056402;28;20277;-80
2022/02/05 10:35:17;;;;;;;4.75;1.75;;;7.00;99.90;;;;;;5073584;28;20196;-81
2022/02/05 10:37:53;;;;;;;8.30;2.42;;;7.00;99.90;;;;;;5055480;28;20249;-80
2022/02/05 10:40:29;;;;;;;5.10;1.75;;;7.00;99.90;;;;;;5071599;28;20636;-80
2022/02/05 10:43:03;;;;;;;7.80;1.80;;;7.00;99.90;;;;;;5050978;28;20631;-81
2022/02/05 10:45:49;;;;;;;4.28;1.83;;;7.10;99.90;;;;;;5053109;28;20167;-82
2022/02/05 10:48:17;;;;;;;8.23;1.90;;;7.10;99.90;;;;;;5064180;28;20249;-79
2022/02/05 10:50:43;;;;;;;7.15;2.15;;;7.10;99.90;;;;;;5057051;28;20174;-82
2022/02/05 10:53:37;;;;;;;8.60;2.13;;;7.10;99.90;;;;;;5073428;28;20209;-81
2022/02/05 10:56:14;;;;;;;5.38;1.88;;;7.10;99.90;;;;;;5072894;28;20167;-82
2022/02/05 11:07:13;;;;;;;8.63;2.53;;;7.50;99.90;;;;;;5053601;28;20229;-80
2022/02/05 11:09:43;;;;;;;8.68;1.90;;;7.40;99.90;;;;;;5053548;28;20213;-79
2022/02/05 11:20:02;;;;;;;5.13;1.45;;;7.50;99.90;;;;;;5053375;28;20171;-82
2022/02/05 11:22:34;;;;;;;4.80;1.80;;;7.60;99.90;;;;;;5053643;28;20194;-80
2022/02/05 11:25:04;;;;;;;3.60;1.38;;;7.60;99.90;;;;;;5074204;28;20162;-81
2022/02/05 11:27:30;;;;;;;8.15;2.40;;;7.50;99.90;;;;;;5077236;28;20527;-78
2022/02/05 11:29:55;;;;;;;5.97;1.50;;;7.50;99.90;;;;;;5076884;28;20165;-79
2022/02/05 11:32:26;;;;;;;3.28;1.65;;;7.50;99.90;;;;;;5076393;28;20229;-81
2022/02/05 11:35:13;;;;;;;4.85;1.20;;;7.60;99.90;;;;;;5077141;28;20159;-79
2022/02/05 11:37:59;;;;;;;5.32;1.73;;;7.60;99.90;;;;;;5058571;28;20182;-79
2022/02/05 11:40:44;;;;;;;8.18;1.80;;;7.70;99.90;;;;;;5076566;28;20519;-78
2022/02/05 11:43:18;;;;;;;7.63;1.60;;;7.60;99.90;;;;;;5075992;28;20595;-78
2022/02/05 11:45:44;;;;;;;5.82;1.60;;;7.60;99.90;;;;;;5058038;28;20585;-80
2022/02/05 11:48:38;;;;;;;12.57;1.63;;;7.70;99.90;;;;;;5076229;28;20166;-78
2022/02/05 11:51:16;;;;;;;7.25;1.92;;;7.70;99.90;;;;;;5076248;28;20223;-81
2022/02/05 11:54:05;;;;;;;6.30;1.52;;;7.70;99.90;;;;;;5076319;28;20194;-81
2022/02/05 11:56:34;;;;;;;5.20;1.63;;;7.70;99.90;;;;;;5076994;28;20212;-80
2022/02/05 11:59:00;;;;;;;11.27;1.73;;;7.90;99.90;;;;;;5076559;28;20187;-79
2022/02/05 12:01:37;;;;;;;3.80;1.65;;;8.00;99.90;;;;;;5076428;28;20162;-80
2022/02/05 12:04:12;;;;;;;4.90;1.30;;;8.00;99.90;;;;;;5076206;28;20175;-80
2022/02/05 12:07:06;;;;;;;2.83;1.17;;;8.00;99.90;;;;;;5058887;28;20170;-81
2022/02/05 12:09:42;;;;;;;2.95;1.33;;;7.90;99.90;;;;;;5076304;28;20170;-79
2022/02/05 12:12:23;;;;;;;7.93;1.80;;;8.00;99.90;;;;;;5070594;22;20206;-77
2022/02/05 12:15:08;;;;;;;3.25;1.80;;;8.20;99.90;;;;;;5038181;28;20197;-80
2022/02/05 12:18:08;;;;;;;6.78;1.77;;;8.20;99.90;;;;;;5038049;28;20174;-78
2022/02/05 12:21:15;;;;;;;3.92;1.40;;;8.20;99.90;;;;;;5055831;28;20155;-77
2022/02/05 12:26:29;;;;;;;5.45;1.52;;;8.20;99.90;;;;;;5055645;28;20170;-80
2022/02/05 12:29:00;;;;;;;8.65;2.05;;;8.20;99.90;;;;;;5055396;28;20194;-77
2022/02/05 12:31:28;;;;;;;8.32;2.25;;;8.20;99.90;;;;;;5055428;28;20221;-77
2022/02/05 12:33:58;;;;;;;9.90;2.20;;;8.20;99.90;;;;;;5054850;28;20274;-78
2022/02/05 12:36:39;;;;;;;7.55;2.38;;;8.30;99.90;;;;;;5054586;28;20205;-80
2022/02/05 12:39:11;;;;;;;4.30;1.77;;;8.40;99.90;;;;;;5055018;28;20574;-78
2022/02/05 12:41:43;;;;;;;11.43;2.53;;;8.30;99.90;;;;;;5037424;28;20171;-77
2022/02/05 12:44:09;;;;;;;18.63;1.85;;;8.30;99.90;;;;;;5036855;28;20171;-78
2022/02/05 12:46:42;;;;;;;2.78;1.35;;;8.40;99.90;;;;;;5036856;28;20178;-87
2022/02/05 12:49:21;;;;;;;8.32;1.48;;;8.30;99.90;;;;;;5055872;28;20160;-78
2022/02/05 12:51:51;;;;;;;9.90;1.52;;;8.40;99.90;;;;;;5054751;28;20191;-78
2022/02/05 12:54:25;;;;;;;8.43;1.40;;;8.40;99.90;;;;;;5055097;28;20191;-83
2022/02/05 12:56:53;;;;;;;7.93;1.63;;;8.40;99.90;;;;;;5054636;28;20254;-78
2022/02/05 12:59:27;;;;;;;3.95;1.15;;;8.40;99.90;;;;;;5055161;28;20172;-78
2022/02/05 13:02:05;;;;;;;5.75;1.30;;;8.50;99.90;;;;;;5054796;28;20221;-83
2022/02/05 13:04:33;;;;;;;5.22;1.30;;;8.60;99.90;;;;;;5036916;28;20173;-85
2022/02/05 13:07:09;;;;;;;7.63;1.67;;;8.60;99.90;;;;;;5054757;28;20597;-80
2022/02/05 13:09:46;;;;;;;7.00;1.23;;;8.60;99.90;;;;;;5036556;28;20252;-84
2022/02/05 13:12:13;;;;;;;4.35;1.50;;;8.60;99.90;;;;;;5054371;28;20216;-79
2022/02/05 13:14:44;;;;;;;4.78;1.10;;;8.60;99.90;;;;;;5054526;28;20193;-82
2022/02/05 13:17:31;;;;;;;3.35;1.05;;;8.60;99.90;;;;;;5055096;28;20167;-79
2022/02/05 13:25:48;;;;;;;5.03;1.60;;;9.40;99.90;;;;;;5054572;28;20702;-80
2022/02/05 13:33:40;;;;;;;6.60;2.05;;;9.80;99.90;;;;;;5054675;28;20233;-81
2022/02/05 13:36:21;;;;;;;10.20;1.35;;;9.60;99.90;;;;;;5054882;28;20167;-86
2022/02/05 13:42:25;;;;;;;11.40;1.95;;;9.50;99.90;;;;;;5034609;28;20249;-80
2022/02/05 13:44:28;;;;;;;11.50;1.73;;;9.60;99.90;;;;;;5023543;28;20207;-87
2022/02/05 13:47:10;;;;;;;6.00;1.83;;;9.70;99.90;;;;;;5034696;28;20270;-87
2022/02/05 13:49:36;;;;;;;10.73;1.65;;;9.80;99.90;;;;;;5033479;28;20624;-86
2022/02/05 13:52:14;;;;;;;11.23;1.83;;;9.90;99.90;;;;;;5034095;28;20216;-83
2022/02/05 13:54:43;;;;;;;12.77;1.92;;;10.00;99.90;;;;;;5016204;28;20175;-84
2022/02/05 13:57:14;;;;;;;11.50;1.83;;;10.00;99.90;;;;;;5015998;28;20250;-84
2022/02/05 13:59:40;;;;;;;7.13;1.90;;;9.80;99.90;;;;;;5033720;28;20218;-79
2022/02/05 14:02:13;;;;;;;4.10;1.25;;;9.80;99.90;;;;;;5033796;28;20188;-78
2022/02/05 14:04:39;;;;;;;19.85;2.47;;;9.60;99.90;;;;;;5016424;28;20540;-78
2022/02/05 14:07:04;;;;;;;9.95;1.40;;;9.70;99.90;;;;;;5033922;28;20160;-79
2022/02/05 14:09:35;;;;;;;5.63;1.48;;;9.70;99.90;;;;;;5034251;28;20218;-83
2022/02/05 14:12:18;;;;;;;18.20;2.08;;;9.70;99.90;;;;;;5034165;28;20207;-84
2022/02/05 14:14:44;;;;;;;12.95;2.13;;;9.60;99.90;;;;;;5034003;28;20163;-84
2022/02/05 14:17:17;;;;;;;10.95;1.90;;;9.30;99.90;;;;;;5034103;28;20172;-85
2022/02/05 14:19:43;;;;;;;8.40;2.00;;;9.30;99.90;;;;;;5033970;28;20530;-78
2022/02/05 14:22:23;;;;;;;8.15;2.42;;;9.20;99.90;;;;;;5033545;28;20180;-77
2022/02/05 14:25:30;;;;;;;12.73;1.67;;;9.20;99.90;;;;;;5033571;28;20604;-78
2022/02/05 14:28:25;;;;;;;13.43;1.83;;;9.20;99.90;;;;;;5033704;28;20181;-78
2022/02/05 14:36:49;;;;;;;9.75;1.80;;;9.10;99.90;;;;;;5033888;28;20317;-77
2022/02/05 14:42:04;;;;;;;8.65;2.05;;;9.10;99.90;;;;;;5033462;28;20683;-85
2022/02/05 14:44:29;;;;;;;12.68;1.65;;;9.00;99.90;;;;;;5033361;28;20256;-83
2022/02/05 14:46:55;;;;;;;6.78;1.90;;;9.10;99.90;;;;;;5033588;28;20723;-85
2022/02/05 14:49:21;;;;;;;13.48;2.30;;;9.00;99.90;;;;;;5033644;28;20176;-83
2022/02/05 14:51:47;;;;;;;10.13;1.70;;;9.00;99.90;;;;;;5015274;28;20613;-85
2022/02/05 14:54:13;;;;;;;6.03;2.25;;;9.00;99.90;;;;;;5015557;28;20171;-79
2022/02/05 14:56:40;;;;;;;3.83;1.80;;;9.10;99.90;;;;;;5015944;28;20164;-87
2022/02/05 14:59:06;;;;;;;7.30;3.55;;;9.30;99.90;;;;;;5033334;28;20211;-87
2022/02/05 15:01:36;;;;;;;14.40;2.40;;;9.30;99.90;;;;;;5033555;28;20188;-82
2022/02/05 15:04:02;;;;;;;10.60;1.70;;;9.50;99.90;;;;;;5015978;28;20179;-85
2022/02/05 15:06:31;;;;;;;5.82;2.47;;;9.50;99.90;;;;;;5033244;28;20234;-80
2022/02/05 15:08:58;;;;;;;2.78;1.23;;;9.40;99.90;;;;;;5033365;28;20684;-82
2022/02/05 15:11:29;;;;;;;12.40;2.40;;;9.30;99.90;;;;;;5033183;28;20167;-78
2022/02/05 15:14:01;;;;;;;5.28;1.90;;;9.40;99.90;;;;;;5033176;28;20203;-86
2022/02/05 15:16:28;;;;;;;5.90;1.58;;;9.40;99.90;;;;;;5033461;28;20221;-80
2022/02/05 15:18:56;;;;;;;6.88;1.55;;;9.40;99.90;;;;;;5033263;28;20170;-80
2022/02/05 15:21:23;;;;;;;14.82;1.83;;;9.30;99.90;;;;;;5033049;28;20222;-84
2022/02/05 15:23:49;;;;;;;12.73;1.73;;;9.30;99.90;;;;;;5032896;28;20186;-78
2022/02/05 15:26:17;;;;;;;10.13;1.90;;;9.40;99.90;;;;;;5033382;28;20184;-84
2022/02/05 15:28:47;;;;;;;6.28;1.90;;;9.40;99.90;;;;;;5033008;28;20210;-83
2022/02/05 15:31:14;;;;;;;8.02;2.30;;;9.50;99.90;;;;;;5032951;28;20167;-79
2022/02/05 15:33:45;;;;;;;4.65;1.35;;;9.60;99.90;;;;;;5033318;28;20191;-82
2022/02/05 15:36:14;;;;;;;7.75;1.90;;;9.50;99.90;;;;;;5033398;28;20184;-89
2022/02/05 15:38:50;;;;;;;9.45;1.70;;;9.50;99.90;;;;;;5032326;28;20186;-78
2022/02/05 15:44:00;;;;;;;9.43;3.35;;;9.40;99.90;;;;;;5033126;28;20776;-77
2022/02/05 15:46:26;;;;;;;13.30;2.55;;;9.30;99.90;;;;;;5032794;28;20168;-81
2022/02/05 15:48:52;;;;;;;3.33;1.85;;;9.20;99.90;;;;;;5037404;28;20652;-81
2022/02/05 15:51:19;;;;;;;8.63;2.10;;;9.10;99.90;;;;;;5041882;28;20275;-80
2022/02/05 15:53:52;;;;;;;6.68;1.60;;;9.10;99.90;;;;;;5049805;28;20195;-84
2022/02/05 15:56:42;;;;;;;11.35;1.60;;;9.00;99.90;;;;;;5060673;28;20167;-76
2022/02/05 15:59:12;;;;;;;9.30;1.73;;;8.90;99.90;;;;;;5056153;28;20179;-77
2022/02/05 16:01:38;;;;;;;10.90;1.77;;;8.80;99.90;;;;;;5056766;28;20175;-77
2022/02/05 16:04:03;;;;;;;11.85;2.00;;;8.80;99.90;;;;;;5053485;28;20164;-88
2022/02/05 16:06:29;;;;;;;5.78;1.85;;;8.80;99.90;;;;;;5052389;28;20167;-89
2022/02/05 16:08:55;;;;;;;4.55;1.75;;;8.80;99.90;;;;;;5052452;28;20187;-77
2022/02/05 16:11:22;;;;;;;8.32;1.67;;;8.90;99.90;;;;;;5053092;28;20597;-88
2022/02/05 16:13:48;;;;;;;11.57;1.90;;;8.90;99.90;;;;;;5056620;28;20202;-77
2022/02/05 16:16:14;;;;;;;6.65;1.75;;;8.80;99.90;;;;;;5056228;28;20164;-78